createdAt,value
2022-11-22T00:02:19.424Z,64.39
2022-11-22T00:07:24.667Z,63.70
2022-11-22T00:12:27.863Z,64.08
2022-11-22T00:17:33.504Z,63.94
2022-11-22T00:22:42.768Z,64.10
2022-11-22T00:27:47.529Z,64.34
2022-11-22T00:32:52.270Z,64.04
2022-11-22T00:37:55.239Z,64.06
2022-11-22T00:42:58.631Z,64.19
2022-11-22T00:48:03.366Z,65.12
2022-11-22T00:53:06.267Z,65.14
2022-11-22T00:58:09.581Z,64.22
2022-11-22T01:03:14.665Z,64.29
2022-11-22T01:08:17.900Z,64.61
2022-11-22T01:13:21.248Z,64.74
2022-11-22T01:18:26.341Z,64.59
2022-11-22T01:23:29.512Z,64.06
2022-11-22T01:28:32.969Z,64.28
2022-11-22T01:33:37.701Z,64.90
2022-11-22T01:38:40.872Z,64.83
2022-11-22T01:43:44.179Z,63.89
2022-11-22T01:48:55.537Z,64.78
2022-11-22T01:54:03.427Z,64.39
2022-11-22T01:59:11.050Z,65.09
2022-11-22T02:04:18.818Z,64.79
2022-11-22T02:09:22.393Z,64.21
2022-11-22T02:14:28.097Z,64.70
2022-11-22T02:19:41.733Z,65.04
2022-11-22T02:24:51.306Z,64.67
2022-11-22T02:29:55.875Z,65.37
2022-11-22T02:34:58.937Z,65.20
2022-11-22T02:40:08.359Z,65.61
2022-11-22T02:45:13.191Z,65.43
2022-11-22T02:50:16.350Z,66.41
2022-11-22T02:55:19.693Z,66.46
2022-11-22T03:00:24.787Z,66.15
2022-11-22T03:05:28.083Z,65.83
2022-11-22T03:10:31.752Z,66.42
2022-11-22T03:15:36.404Z,65.37
2022-11-22T03:20:39.600Z,65.12
2022-11-22T03:25:44.125Z,65.85
2022-11-22T03:30:48.757Z,65.99
2022-11-22T03:35:52.213Z,66.03
2022-11-22T03:40:55.669Z,65.78
2022-11-22T03:46:00.361Z,65.38
2022-11-22T03:51:06.877Z,65.15
2022-11-22T03:56:10.523Z,65.04
2022-11-22T04:01:16.878Z,65.08
2022-11-22T04:06:20.199Z,65.29
2022-11-22T04:11:23.772Z,65.12
2022-11-22T04:16:28.342Z,65.45
2022-11-22T04:21:37.567Z,65.27
2022-11-22T04:26:40.837Z,64.93
2022-11-22T04:32:03.200Z,65.22
2022-11-22T04:37:07.354Z,65.09
2022-11-22T04:42:28.250Z,65.13
2022-11-22T04:48:01.654Z,65.42
2022-11-22T04:53:05.262Z,65.01
2022-11-22T04:58:08.783Z,65.77
2022-11-22T05:03:13.753Z,65.97
2022-11-22T05:08:17.057Z,65.82
2022-11-22T05:13:21.466Z,65.50
2022-11-22T05:18:27.077Z,65.68
2022-11-22T05:23:47.729Z,65.63
2022-11-22T05:28:51.180Z,66.00
2022-11-22T05:33:57.621Z,65.74
2022-11-22T05:39:01.106Z,66.04
2022-11-22T05:44:04.519Z,65.93
2022-11-22T05:49:09.199Z,66.25
2022-11-22T05:54:12.316Z,66.93
2022-11-22T05:59:16.212Z,65.77
2022-11-22T06:04:21.040Z,65.63
2022-11-22T06:09:24.152Z,64.94
2022-11-22T06:14:27.529Z,65.00
2022-11-22T06:19:32.412Z,65.03
2022-11-22T06:24:35.812Z,65.24
2022-11-22T06:29:39.019Z,64.38
2022-11-22T06:34:43.851Z,65.03
2022-11-22T06:39:46.914Z,65.27
2022-11-22T06:44:50.235Z,65.57
2022-11-22T06:49:54.820Z,65.25
2022-11-22T06:54:58.159Z,65.87
2022-11-22T07:00:01.609Z,65.73
2022-11-22T07:05:25.328Z,65.84
2022-11-22T07:10:29.450Z,65.73
2022-11-22T07:15:32.688Z,64.56
2022-11-22T07:20:37.312Z,64.38
2022-11-22T07:25:40.511Z,64.09
2022-11-22T07:30:44.657Z,64.16
2022-11-22T07:35:49.286Z,64.08
2022-11-22T07:40:52.810Z,64.81
2022-11-22T07:45:59.971Z,65.02
2022-11-22T07:51:08.667Z,65.00
2022-11-22T07:56:12.397Z,64.99
2022-11-22T08:01:17.896Z,64.80
2022-11-22T08:06:22.650Z,64.42
2022-11-22T08:11:25.995Z,65.60
2022-11-22T08:16:29.304Z,66.31
2022-11-22T08:21:34.049Z,66.28
2022-11-22T08:26:37.415Z,66.64
2022-11-22T08:31:41.287Z,66.93
2022-11-22T08:36:46.017Z,67.53
2022-11-22T08:41:49.304Z,66.78
2022-11-22T08:46:52.514Z,67.15
2022-11-22T08:51:57.318Z,66.88
2022-11-22T08:57:00.253Z,67.97
2022-11-22T09:02:03.624Z,67.53
2022-11-22T09:12:31.707Z,67.31
2022-11-22T09:17:35.052Z,67.07
2022-11-22T09:22:40.145Z,67.11
2022-11-22T09:27:43.522Z,66.87
2022-11-22T09:32:46.860Z,67.67
2022-11-22T09:37:51.933Z,67.52
2022-11-22T09:43:10.497Z,67.61
2022-11-22T09:48:31.650Z,66.51
2022-11-22T09:53:42.341Z,67.70
2022-11-22T09:58:51.818Z,67.63
2022-11-22T10:03:59.104Z,67.80
2022-11-22T10:09:21.565Z,67.57
2022-11-22T10:14:33.286Z,69.37
2022-11-22T10:19:40.874Z,68.58
2022-11-22T10:24:46.385Z,69.33
2022-11-22T10:29:56.693Z,68.23
2022-11-22T10:35:20.648Z,68.19
2022-11-22T10:40:36.905Z,69.06
2022-11-22T10:45:46.492Z,69.75
2022-11-22T10:50:59.224Z,69.29
2022-11-22T10:56:13.092Z,68.49
2022-11-22T11:01:27.284Z,68.90
2022-11-22T11:06:56.872Z,69.04
2022-11-22T11:12:03.671Z,68.95
2022-11-22T11:17:08.325Z,68.79
2022-11-22T11:22:31.616Z,70.33
2022-11-22T11:27:44.051Z,68.66
2022-11-22T11:32:54.042Z,69.38
2022-11-22T11:37:57.446Z,69.18
2022-11-22T11:43:21.427Z,68.94
2022-11-22T11:48:30.187Z,69.66
2022-11-22T11:53:33.477Z,69.61
2022-11-22T11:58:39.252Z,69.23
2022-11-22T12:03:42.622Z,68.82
2022-11-22T12:08:46.317Z,68.49
2022-11-22T12:19:28.843Z,68.44
2022-11-22T12:25:09.353Z,68.08
2022-11-22T12:30:06.564Z,67.76
2022-11-22T12:35:15.129Z,69.49
2022-11-22T12:40:20.432Z,70.43
2022-11-22T12:45:30.206Z,69.75
2022-11-22T12:50:40.630Z,69.73
2022-11-22T12:55:50.936Z,70.29
2022-11-22T13:01:06.974Z,70.59
2022-11-22T13:06:12.114Z,70.69
2022-11-22T13:11:20.818Z,70.43
2022-11-22T13:16:25.529Z,69.98
2022-11-22T13:21:35.653Z,70.21
2022-11-22T13:26:49.150Z,69.66
2022-11-22T13:32:06.039Z,69.11
2022-11-22T13:37:12.909Z,68.92
2022-11-22T13:42:20.313Z,70.19
2022-11-22T13:47:42.219Z,69.88
2022-11-22T13:52:53.369Z,69.61
2022-11-22T13:57:57.009Z,70.17
2022-11-22T14:03:24.090Z,69.92
2022-11-22T14:08:34.669Z,71.50
2022-11-22T14:13:48.527Z,71.25
2022-11-22T14:19:04.275Z,71.40
2022-11-22T14:24:18.123Z,70.33
2022-11-22T14:30:04.255Z,71.23
2022-11-22T14:35:35.728Z,70.85
2022-11-22T14:40:40.378Z,70.20
2022-11-22T14:45:47.063Z,70.75
2022-11-22T14:50:56.216Z,71.38
2022-11-22T14:56:06.077Z,71.12
2022-11-22T15:01:43.976Z,71.95
2022-11-22T15:09:16.589Z,71.06
2022-11-22T15:12:50.952Z,72.61
2022-11-22T16:01:29.551Z,71.55
2022-11-22T16:06:33.707Z,70.71
2022-11-22T16:11:41.124Z,71.00
2022-11-22T16:16:44.474Z,71.00
2022-11-22T16:21:57.555Z,71.26
2022-11-22T16:27:06.152Z,71.58
2022-11-22T16:32:12.607Z,71.07
2022-11-22T16:37:28.332Z,72.26
2022-11-22T16:42:35.655Z,71.26
2022-11-22T16:47:39.003Z,71.08
2022-11-22T16:52:42.994Z,70.50
2022-11-22T16:57:47.993Z,70.53
2022-11-22T17:02:51.220Z,71.40
2022-11-22T17:07:54.486Z,70.83
2022-11-22T17:12:59.251Z,70.84
2022-11-22T17:18:02.566Z,70.71
2022-11-22T17:23:10.732Z,70.83
2022-11-22T17:28:15.880Z,71.11
2022-11-22T17:33:19.118Z,70.82
2022-11-22T17:38:22.842Z,70.42
2022-11-22T17:43:27.914Z,70.14
2022-11-22T17:48:31.207Z,71.05
2022-11-22T17:53:34.789Z,70.71
2022-11-22T17:58:39.836Z,70.60
2022-11-22T18:03:44.071Z,70.61
2022-11-22T18:08:47.663Z,69.84
2022-11-22T18:13:53.038Z,70.77
2022-11-22T18:18:58.101Z,70.97
2022-11-22T18:24:02.506Z,71.41
2022-11-22T18:34:31.551Z,71.70
2022-11-22T18:39:37.991Z,71.58
2022-11-22T18:44:43.393Z,71.47
2022-11-22T18:49:48.153Z,70.94
2022-11-22T18:54:51.832Z,71.05
2022-11-22T18:59:56.551Z,71.96
2022-11-22T19:05:00.075Z,70.99
2022-11-22T19:10:03.752Z,71.17
2022-11-22T19:15:10.400Z,71.60
2022-11-22T19:20:39.093Z,71.68
2022-11-22T19:25:37.551Z,71.10
2022-11-22T19:30:44.221Z,70.44
2022-11-22T19:35:57.146Z,70.77
2022-11-22T19:41:00.609Z,71.18
2022-11-22T19:46:06.046Z,71.40
2022-11-22T19:51:13.911Z,71.24
2022-11-22T19:56:18.812Z,71.15
2022-11-22T20:01:24.595Z,70.42
2022-11-22T20:06:28.721Z,70.52
2022-11-22T20:11:32.162Z,71.19
2022-11-22T20:16:41.396Z,71.32
2022-11-22T20:21:45.088Z,71.00
2022-11-22T20:26:48.445Z,70.44
2022-11-22T20:31:53.197Z,70.39
2022-11-22T20:36:56.861Z,71.24
2022-11-22T20:42:26.407Z,71.12
2022-11-22T20:47:24.993Z,70.33
2022-11-22T20:52:28.576Z,70.60
2022-11-22T20:57:31.834Z,70.63
2022-11-22T21:02:36.554Z,70.92
2022-11-22T21:07:39.815Z,70.78
2022-11-22T21:12:43.057Z,70.55
2022-11-22T21:18:17.101Z,71.01
2022-11-22T21:23:11.520Z,70.64
2022-11-22T21:28:15.165Z,70.46
2022-11-22T21:33:19.852Z,70.77
2022-11-22T21:38:28.235Z,70.38
2022-11-22T21:43:34.344Z,71.23
2022-11-22T21:48:39.020Z,70.55
2022-11-22T21:53:42.205Z,70.45
2022-11-22T21:58:45.740Z,70.21
2022-11-22T22:03:50.665Z,70.23
2022-11-22T22:08:53.616Z,69.22
2022-11-22T22:13:58.268Z,69.33
2022-11-22T22:19:08.049Z,69.32
2022-11-22T22:24:12.775Z,70.00
2022-11-22T22:29:16.066Z,69.79
2022-11-22T22:34:20.621Z,69.70
2022-11-22T22:39:23.788Z,69.40
2022-11-22T22:44:27.060Z,69.22
2022-11-22T22:49:31.795Z,69.32
2022-11-22T22:54:36.096Z,69.71
2022-11-22T22:59:39.378Z,69.22
2022-11-22T23:04:43.979Z,70.26
2022-11-22T23:09:47.240Z,69.75
2022-11-22T23:14:50.625Z,69.81
2022-11-22T23:19:55.425Z,69.09
2022-11-22T23:24:58.774Z,69.41
2022-11-22T23:30:02.190Z,69.40
2022-11-22T23:35:08.935Z,69.44
2022-11-22T23:40:13.659Z,69.01
2022-11-22T23:45:16.992Z,69.26
2022-11-22T23:50:21.590Z,69.24
2022-11-22T23:55:24.831Z,69.15
